sensor_id;sensor_type;location;lat;lon;timestamp;pressure;altitude;pressure_sealevel;temperature;humidity
71559;BME280;59382;43.852;25.952;2022-11-20T00:00:55;100685.00;;;14.24;72.86
71559;BME280;59382;43.852;25.952;2022-11-20T00:03:21;100677.41;;;14.26;72.75
71559;BME280;59382;43.852;25.952;2022-11-20T00:05:47;100673.19;;;14.30;72.58
71559;BME280;59382;43.852;25.952;2022-11-20T00:08:13;100675.19;;;14.34;72.51
71559;BME280;59382;43.852;25.952;2022-11-20T00:10:39;100659.63;;;14.30;72.30
71559;BME280;59382;43.852;25.952;2022-11-20T00:13:06;100670.56;;;14.35;72.54
71559;BME280;59382;43.852;25.952;2022-11-20T00:15:32;100667.75;;;14.30;72.73
71559;BME280;59382;43.852;25.952;2022-11-20T00:17:57;100667.41;;;14.26;72.61
71559;BME280;59382;43.852;25.952;2022-11-20T00:20:23;100671.53;;;14.29;72.75
71559;BME280;59382;43.852;25.952;2022-11-20T00:22:49;100672.34;;;14.29;72.75
71559;BME280;59382;43.852;25.952;2022-11-20T00:25:15;100667.75;;;14.30;72.77
71559;BME280;59382;43.852;25.952;2022-11-20T00:27:40;100671.19;;;14.25;73.00
71559;BME280;59382;43.852;25.952;2022-11-20T00:30:07;100678.16;;;14.33;73.06
71559;BME280;59382;43.852;25.952;2022-11-20T00:32:33;100688.53;;;14.36;72.78
71559;BME280;59382;43.852;25.952;2022-11-20T00:34:58;100674.47;;;14.27;72.89
71559;BME280;59382;43.852;25.952;2022-11-20T00:37:24;100679.31;;;14.37;72.88
71559;BME280;59382;43.852;25.952;2022-11-20T00:39:49;100670.09;;;14.38;73.06
71559;BME280;59382;43.852;25.952;2022-11-20T00:42:15;100682.41;;;14.40;72.87
71559;BME280;59382;43.852;25.952;2022-11-20T00:44:40;100665.63;;;14.32;73.17
71559;BME280;59382;43.852;25.952;2022-11-20T00:47:06;100661.75;;;14.28;73.38
71559;BME280;59382;43.852;25.952;2022-11-20T00:49:31;100685.81;;;14.36;73.14
71559;BME280;59382;43.852;25.952;2022-11-20T00:51:57;100681.44;;;14.35;73.20
71559;BME280;59382;43.852;25.952;2022-11-20T00:54:24;100662.81;;;14.27;73.32
71559;BME280;59382;43.852;25.952;2022-11-20T00:56:49;100674.97;;;14.36;73.40
71559;BME280;59382;43.852;25.952;2022-11-20T00:59:15;100652.19;;;14.37;73.20
71559;BME280;59382;43.852;25.952;2022-11-20T01:01:40;100640.16;;;14.33;73.28
71559;BME280;59382;43.852;25.952;2022-11-20T01:04:06;100642.47;;;14.41;73.25
71559;BME280;59382;43.852;25.952;2022-11-20T01:06:34;100633.78;;;14.39;73.33
71559;BME280;59382;43.852;25.952;2022-11-20T01:09:03;100606.38;;;14.29;73.29
71559;BME280;59382;43.852;25.952;2022-11-20T01:11:35;100637.53;;;14.38;73.60
71559;BME280;59382;43.852;25.952;2022-11-20T01:14:03;100637.53;;;14.38;73.61
71559;BME280;59382;43.852;25.952;2022-11-20T01:16:32;100622.91;;;14.39;73.44
71559;BME280;59382;43.852;25.952;2022-11-20T01:18:59;100606.16;;;14.42;73.59
71559;BME280;59382;43.852;25.952;2022-11-20T01:21:31;100615.09;;;14.42;73.36
71559;BME280;59382;43.852;25.952;2022-11-20T01:23:58;100603.78;;;14.34;73.48
71559;BME280;59382;43.852;25.952;2022-11-20T01:26:35;100607.09;;;14.36;73.65
71559;BME280;59382;43.852;25.952;2022-11-20T01:29:02;100606.25;;;14.35;73.50
71559;BME280;59382;43.852;25.952;2022-11-20T01:31:30;100625.63;;;14.39;73.50
71559;BME280;59382;43.852;25.952;2022-11-20T01:33:58;100616.28;;;14.35;73.47
71559;BME280;59382;43.852;25.952;2022-11-20T01:36:26;100597.50;;;14.22;73.69
71559;BME280;59382;43.852;25.952;2022-11-20T01:38:56;100614.75;;;14.27;74.34
71559;BME280;59382;43.852;25.952;2022-11-20T01:41:24;100607.56;;;14.33;73.95
71559;BME280;59382;43.852;25.952;2022-11-20T01:44:10;100596.34;;;14.29;73.87
71559;BME280;59382;43.852;25.952;2022-11-20T01:46:38;100579.00;;;14.19;74.08
71559;BME280;59382;43.852;25.952;2022-11-20T01:49:18;100591.00;;;14.23;74.26
71559;BME280;59382;43.852;25.952;2022-11-20T01:51:49;100609.22;;;14.22;74.07
71559;BME280;59382;43.852;25.952;2022-11-20T01:54:19;100630.47;;;14.25;74.07
71559;BME280;59382;43.852;25.952;2022-11-20T01:56:48;100626.09;;;14.24;74.25
71559;BME280;59382;43.852;25.952;2022-11-20T01:59:18;100623.56;;;14.23;74.09
71559;BME280;59382;43.852;25.952;2022-11-20T02:01:45;100620.53;;;14.19;74.00
71559;BME280;59382;43.852;25.952;2022-11-20T02:04:11;100630.31;;;14.20;73.89
71559;BME280;59382;43.852;25.952;2022-11-20T02:06:47;100610.38;;;14.15;74.06
71559;BME280;59382;43.852;25.952;2022-11-20T02:09:14;100594.31;;;14.02;73.76
71559;BME280;59382;43.852;25.952;2022-11-20T02:11:40;100600.00;;;14.00;74.02
71559;BME280;59382;43.852;25.952;2022-11-20T02:14:06;100606.97;;;13.96;73.59
71559;BME280;59382;43.852;25.952;2022-11-20T02:16:35;100594.94;;;13.92;74.03
71559;BME280;59382;43.852;25.952;2022-11-20T02:19:04;100592.31;;;13.85;74.10
71559;BME280;59382;43.852;25.952;2022-11-20T02:21:40;100597.28;;;13.88;73.64
71559;BME280;59382;43.852;25.952;2022-11-20T02:24:17;100586.34;;;13.83;73.98
71559;BME280;59382;43.852;25.952;2022-11-20T02:26:56;100576.16;;;13.67;74.09
71559;BME280;59382;43.852;25.952;2022-11-20T02:29:40;100582.41;;;13.68;73.96
71559;BME280;59382;43.852;25.952;2022-11-20T02:32:27;100577.38;;;13.71;73.67
71559;BME280;59382;43.852;25.952;2022-11-20T02:34:53;100577.38;;;13.71;73.86
71559;BME280;59382;43.852;25.952;2022-11-20T02:37:19;100574.75;;;13.76;73.91
71559;BME280;59382;43.852;25.952;2022-11-20T02:39:50;100579.38;;;13.76;73.79
71559;BME280;59382;43.852;25.952;2022-11-20T02:42:16;100565.69;;;13.71;73.57
71559;BME280;59382;43.852;25.952;2022-11-20T02:44:42;100582.06;;;13.64;73.74
71559;BME280;59382;43.852;25.952;2022-11-20T02:47:08;100567.19;;;13.55;73.77
71559;BME280;59382;43.852;25.952;2022-11-20T02:49:33;100547.88;;;13.40;73.62
71559;BME280;59382;43.852;25.952;2022-11-20T02:51:59;100547.13;;;13.33;73.81
71559;BME280;59382;43.852;25.952;2022-11-20T02:54:25;100554.09;;;13.41;73.47
71559;BME280;59382;43.852;25.952;2022-11-20T02:56:50;100563.19;;;13.46;73.65
71559;BME280;59382;43.852;25.952;2022-11-20T02:59:16;100578.72;;;13.39;73.41
71559;BME280;59382;43.852;25.952;2022-11-20T03:01:42;100561.50;;;13.22;73.67
71559;BME280;59382;43.852;25.952;2022-11-20T03:04:07;100548.28;;;13.14;73.74
71559;BME280;59382;43.852;25.952;2022-11-20T03:06:33;100548.03;;;13.16;73.28
71559;BME280;59382;43.852;25.952;2022-11-20T03:08:58;100569.34;;;13.12;73.93
71559;BME280;59382;43.852;25.952;2022-11-20T03:11:24;100555.22;;;13.10;73.89
71559;BME280;59382;43.852;25.952;2022-11-20T03:13:50;100551.47;;;12.93;73.81
71559;BME280;59382;43.852;25.952;2022-11-20T03:16:18;100564.03;;;13.06;73.68
71559;BME280;59382;43.852;25.952;2022-11-20T03:18:44;100543.94;;;12.95;72.77
71559;BME280;59382;43.852;25.952;2022-11-20T03:21:11;100548.91;;;12.98;73.15
71559;BME280;59382;43.852;25.952;2022-11-20T03:23:37;100573.97;;;12.94;72.72
71559;BME280;59382;43.852;25.952;2022-11-20T03:26:17;100567.06;;;12.80;72.66
71559;BME280;59382;43.852;25.952;2022-11-20T03:28:52;100571.31;;;12.76;73.19
71559;BME280;59382;43.852;25.952;2022-11-20T03:31:21;100543.22;;;12.59;72.55
71559;BME280;59382;43.852;25.952;2022-11-20T03:33:48;100568.56;;;12.64;72.96
71559;BME280;59382;43.852;25.952;2022-11-20T03:36:15;100579.84;;;12.61;72.74
71559;BME280;59382;43.852;25.952;2022-11-20T03:38:41;100546.41;;;12.38;72.69
71559;BME280;59382;43.852;25.952;2022-11-20T03:41:37;100571.06;;;12.48;72.45
71559;BME280;59382;43.852;25.952;2022-11-20T03:44:00;100553.97;;;12.29;72.61
71559;BME280;59382;43.852;25.952;2022-11-20T03:46:26;100573.47;;;12.38;72.44
71559;BME280;59382;43.852;25.952;2022-11-20T03:48:52;100584.06;;;12.39;72.34
71559;BME280;59382;43.852;25.952;2022-11-20T03:51:19;100590.06;;;12.41;72.42
71559;BME280;59382;43.852;25.952;2022-11-20T03:53:47;100574.00;;;12.28;72.29
71559;BME280;59382;43.852;25.952;2022-11-20T03:56:14;100582.72;;;12.30;72.14
71559;BME280;59382;43.852;25.952;2022-11-20T03:58:40;100586.69;;;12.28;72.13
71559;BME280;59382;43.852;25.952;2022-11-20T04:01:29;100601.94;;;12.22;72.33
71559;BME280;59382;43.852;25.952;2022-11-20T04:03:56;100611.47;;;12.25;72.35
71559;BME280;59382;43.852;25.952;2022-11-20T04:06:25;100597.66;;;12.15;71.97
71559;BME280;59382;43.852;25.952;2022-11-20T04:08:54;100604.03;;;12.02;71.79
71559;BME280;59382;43.852;25.952;2022-11-20T04:11:23;100618.91;;;11.93;72.30
71559;BME280;59382;43.852;25.952;2022-11-20T04:13:54;100619.94;;;11.92;72.48
71559;BME280;59382;43.852;25.952;2022-11-20T04:16:21;100584.59;;;11.69;72.41
71559;BME280;59382;43.852;25.952;2022-11-20T04:18:55;100611.06;;;11.85;71.92
71559;BME280;59382;43.852;25.952;2022-11-20T04:21:22;100610.28;;;11.78;72.47
71559;BME280;59382;43.852;25.952;2022-11-20T04:23:49;100632.69;;;11.85;72.20
71559;BME280;59382;43.852;25.952;2022-11-20T04:26:14;100622.25;;;11.88;72.42
71559;BME280;59382;43.852;25.952;2022-11-20T04:28:40;100599.47;;;11.78;72.11
71559;BME280;59382;43.852;25.952;2022-11-20T04:31:12;100627.00;;;11.93;72.04
71559;BME280;59382;43.852;25.952;2022-11-20T04:33:38;100627.00;;;11.93;72.04
71559;BME280;59382;43.852;25.952;2022-11-20T04:36:25;100610.63;;;11.88;72.13
71559;BME280;59382;43.852;25.952;2022-11-20T04:38:52;100612.69;;;11.86;72.09
71559;BME280;59382;43.852;25.952;2022-11-20T04:41:19;100608.34;;;11.85;71.84
71559;BME280;59382;43.852;25.952;2022-11-20T04:43:56;100606.94;;;11.82;71.80
71559;BME280;59382;43.852;25.952;2022-11-20T04:46:25;100609.25;;;11.79;71.95
71559;BME280;59382;43.852;25.952;2022-11-20T04:48:52;100616.16;;;11.75;71.76
71559;BME280;59382;43.852;25.952;2022-11-20T04:51:19;100614.56;;;11.61;71.50
71559;BME280;59382;43.852;25.952;2022-11-20T04:53:48;100593.06;;;11.48;71.91
71559;BME280;59382;43.852;25.952;2022-11-20T04:56:44;100602.97;;;11.54;71.90
71559;BME280;59382;43.852;25.952;2022-11-20T04:59:20;100606.66;;;11.59;71.93
71559;BME280;59382;43.852;25.952;2022-11-20T05:01:49;100616.66;;;11.59;71.76
71559;BME280;59382;43.852;25.952;2022-11-20T05:04:24;100584.53;;;11.44;71.57
71559;BME280;59382;43.852;25.952;2022-11-20T05:06:50;100615.88;;;11.52;71.46
71559;BME280;59382;43.852;25.952;2022-11-20T05:09:16;100622.94;;;11.53;72.16
71559;BME280;59382;43.852;25.952;2022-11-20T05:11:41;100619.81;;;11.56;71.77
71559;BME280;59382;43.852;25.952;2022-11-20T05:14:07;100602.22;;;11.47;72.05
71559;BME280;59382;43.852;25.952;2022-11-20T05:16:35;100597.63;;;11.47;71.68
71559;BME280;59382;43.852;25.952;2022-11-20T05:19:01;100582.69;;;11.45;71.51
71559;BME280;59382;43.852;25.952;2022-11-20T05:21:30;100603.63;;;11.49;71.61
71559;BME280;59382;43.852;25.952;2022-11-20T05:23:56;100607.53;;;11.53;71.44
71559;BME280;59382;43.852;25.952;2022-11-20T05:26:22;100617.19;;;11.43;71.50
71559;BME280;59382;43.852;25.952;2022-11-20T05:28:49;100624.84;;;11.46;71.37
71559;BME280;59382;43.852;25.952;2022-11-20T05:31:21;100614.78;;;11.35;71.77
71559;BME280;59382;43.852;25.952;2022-11-20T05:33:47;100611.63;;;11.38;71.74
71559;BME280;59382;43.852;25.952;2022-11-20T05:36:14;100665.34;;;11.52;71.65
71559;BME280;59382;43.852;25.952;2022-11-20T05:38:40;100710.63;;;11.57;71.57
71559;BME280;59382;43.852;25.952;2022-11-20T05:41:08;100721.00;;;11.60;71.42
71559;BME280;59382;43.852;25.952;2022-11-20T05:43:35;100699.41;;;11.60;71.19
71559;BME280;59382;43.852;25.952;2022-11-20T05:46:02;100708.72;;;11.70;71.39
71559;BME280;59382;43.852;25.952;2022-11-20T05:48:28;100706.81;;;11.71;71.21
71559;BME280;59382;43.852;25.952;2022-11-20T05:50:54;100684.38;;;11.70;71.25
71559;BME280;59382;43.852;25.952;2022-11-20T05:53:19;100701.78;;;11.81;70.74
71559;BME280;59382;43.852;25.952;2022-11-20T05:55:45;100697.84;;;11.77;70.09
71559;BME280;59382;43.852;25.952;2022-11-20T05:58:10;100699.16;;;11.68;69.75
71559;BME280;59382;43.852;25.952;2022-11-20T06:00:38;100685.78;;;11.42;69.96
71559;BME280;59382;43.852;25.952;2022-11-20T06:03:04;100721.09;;;11.47;69.73
71559;BME280;59382;43.852;25.952;2022-11-20T06:05:30;100749.34;;;11.51;70.12
71559;BME280;59382;43.852;25.952;2022-11-20T06:07:55;100721.09;;;11.47;70.24
71559;BME280;59382;43.852;25.952;2022-11-20T06:10:20;100740.44;;;11.44;70.13
71559;BME280;59382;43.852;25.952;2022-11-20T06:12:46;100749.41;;;11.38;70.24
71559;BME280;59382;43.852;25.952;2022-11-20T06:15:12;100734.94;;;11.26;70.34
71559;BME280;59382;43.852;25.952;2022-11-20T06:17:37;100738.88;;;11.23;70.41
71559;BME280;59382;43.852;25.952;2022-11-20T06:20:03;100756.91;;;11.29;69.86
71559;BME280;59382;43.852;25.952;2022-11-20T06:22:32;100765.66;;;11.25;70.22
71559;BME280;59382;43.852;25.952;2022-11-20T06:24:57;100792.44;;;11.33;70.11
71559;BME280;59382;43.852;25.952;2022-11-20T06:27:23;100780.66;;;11.21;70.38
71559;BME280;59382;43.852;25.952;2022-11-20T06:29:48;100798.06;;;11.25;70.02
71559;BME280;59382;43.852;25.952;2022-11-20T06:32:14;100791.41;;;11.34;70.25
71559;BME280;59382;43.852;25.952;2022-11-20T06:34:39;100781.28;;;11.23;70.08
71559;BME280;59382;43.852;25.952;2022-11-20T06:37:05;100800.19;;;11.23;69.84
71559;BME280;59382;43.852;25.952;2022-11-20T06:39:30;100811.78;;;11.30;70.38
71559;BME280;59382;43.852;25.952;2022-11-20T06:41:56;100833.38;;;11.36;70.25
71559;BME280;59382;43.852;25.952;2022-11-20T06:44:22;100825.91;;;11.32;70.38
71559;BME280;59382;43.852;25.952;2022-11-20T06:46:47;100817.13;;;11.43;70.22
71559;BME280;59382;43.852;25.952;2022-11-20T06:49:13;100834.16;;;11.50;69.66
71559;BME280;59382;43.852;25.952;2022-11-20T06:51:38;100856.44;;;11.45;69.72
71559;BME280;59382;43.852;25.952;2022-11-20T06:54:04;100883.63;;;11.50;69.98
71559;BME280;59382;43.852;25.952;2022-11-20T06:56:29;100863.06;;;11.43;70.28
71559;BME280;59382;43.852;25.952;2022-11-20T06:58:55;100878.25;;;11.44;69.82
71559;BME280;59382;43.852;25.952;2022-11-20T07:01:20;100901.94;;;11.48;69.98
71559;BME280;59382;43.852;25.952;2022-11-20T07:03:49;100908.56;;;11.46;70.17
71559;BME280;59382;43.852;25.952;2022-11-20T07:06:16;100904.88;;;11.34;70.46
71559;BME280;59382;43.852;25.952;2022-11-20T07:08:41;100896.16;;;11.32;70.48
71559;BME280;59382;43.852;25.952;2022-11-20T07:11:07;100908.56;;;11.46;69.95
71559;BME280;59382;43.852;25.952;2022-11-20T07:13:33;100904.22;;;11.45;69.68
71559;BME280;59382;43.852;25.952;2022-11-20T07:16:00;100889.03;;;11.50;69.64
71559;BME280;59382;43.852;25.952;2022-11-20T07:18:26;100882.38;;;11.53;69.44
71559;BME280;59382;43.852;25.952;2022-11-20T07:20:52;100882.38;;;11.53;68.57
71559;BME280;59382;43.852;25.952;2022-11-20T07:23:17;100864.53;;;11.39;68.08
71559;BME280;59382;43.852;25.952;2022-11-20T07:25:43;100882.41;;;11.40;68.38
71559;BME280;59382;43.852;25.952;2022-11-20T07:28:10;100861.47;;;11.29;68.39
71559;BME280;59382;43.852;25.952;2022-11-20T07:30:36;100871.22;;;11.30;68.92
71559;BME280;59382;43.852;25.952;2022-11-20T07:33:02;100868.09;;;11.26;68.49
71559;BME280;59382;43.852;25.952;2022-11-20T07:35:27;100897.38;;;11.36;68.62
71559;BME280;59382;43.852;25.952;2022-11-20T07:37:53;100879.53;;;11.35;68.66
71559;BME280;59382;43.852;25.952;2022-11-20T07:40:21;100889.06;;;11.44;68.76
71559;BME280;59382;43.852;25.952;2022-11-20T07:42:51;100880.97;;;11.37;68.36
71559;BME280;59382;43.852;25.952;2022-11-20T07:45:18;100889.28;;;11.42;68.62
71559;BME280;59382;43.852;25.952;2022-11-20T07:47:43;100901.53;;;11.45;68.50
71559;BME280;59382;43.852;25.952;2022-11-20T07:50:10;100898.41;;;11.48;68.64
71559;BME280;59382;43.852;25.952;2022-11-20T07:52:35;100897.16;;;11.44;68.07
71559;BME280;59382;43.852;25.952;2022-11-20T07:55:01;100903.16;;;11.46;68.46
71559;BME280;59382;43.852;25.952;2022-11-20T07:57:26;100872.03;;;11.37;68.39
71559;BME280;59382;43.852;25.952;2022-11-20T07:59:51;100897.34;;;11.49;68.81
71559;BME280;59382;43.852;25.952;2022-11-20T08:02:17;100869.53;;;11.42;68.93
71559;BME280;59382;43.852;25.952;2022-11-20T08:04:42;100888.16;;;11.56;68.41
71559;BME280;59382;43.852;25.952;2022-11-20T08:07:08;100880.28;;;11.55;68.46
71559;BME280;59382;43.852;25.952;2022-11-20T08:09:34;100893.16;;;11.66;67.97
71559;BME280;59382;43.852;25.952;2022-11-20T08:12:02;100882.09;;;11.74;68.06
71559;BME280;59382;43.852;25.952;2022-11-20T08:14:46;100876.69;;;11.74;67.95
71559;BME280;59382;43.852;25.952;2022-11-20T08:17:11;100872.75;;;11.70;68.07
71559;BME280;59382;43.852;25.952;2022-11-20T08:19:37;100862.38;;;11.67;67.69
71559;BME280;59382;43.852;25.952;2022-11-20T08:22:03;100857.00;;;11.54;67.80
71559;BME280;59382;43.852;25.952;2022-11-20T08:24:28;100847.50;;;11.38;68.26
71559;BME280;59382;43.852;25.952;2022-11-20T08:26:57;100850.03;;;11.27;68.54
71559;BME280;59382;43.852;25.952;2022-11-20T08:29:23;100844.63;;;11.27;68.46
71559;BME280;59382;43.852;25.952;2022-11-20T08:31:48;100840.50;;;11.24;68.72
71559;BME280;59382;43.852;25.952;2022-11-20T08:34:14;100842.56;;;11.22;68.87
71559;BME280;59382;43.852;25.952;2022-11-20T08:36:40;100845.31;;;11.16;69.27
71559;BME280;59382;43.852;25.952;2022-11-20T08:39:05;100853.16;;;11.24;69.20
71559;BME280;59382;43.852;25.952;2022-11-20T08:41:31;100854.00;;;11.18;68.86
71559;BME280;59382;43.852;25.952;2022-11-20T08:44:07;100868.53;;;11.23;68.87
71559;BME280;59382;43.852;25.952;2022-11-20T08:46:44;100827.22;;;11.16;68.98
71559;BME280;59382;43.852;25.952;2022-11-20T08:49:13;100878.63;;;11.54;69.09
71559;BME280;59382;43.852;25.952;2022-11-20T08:51:40;100895.25;;;11.64;68.53
71559;BME280;59382;43.852;25.952;2022-11-20T08:54:06;100861.56;;;11.60;68.55
71559;BME280;59382;43.852;25.952;2022-11-20T08:56:32;100860.47;;;11.74;68.58
71559;BME280;59382;43.852;25.952;2022-11-20T08:58:58;100860.44;;;11.87;68.40
71559;BME280;59382;43.852;25.952;2022-11-20T09:01:26;100851.06;;;11.83;68.35
71559;BME280;59382;43.852;25.952;2022-11-20T09:03:55;100870.19;;;11.88;68.19
71559;BME280;59382;43.852;25.952;2022-11-20T09:06:21;100869.31;;;11.94;68.02
71559;BME280;59382;43.852;25.952;2022-11-20T09:08:53;100869.69;;;12.04;68.25
71559;BME280;59382;43.852;25.952;2022-11-20T09:11:19;100865.50;;;12.08;67.84
71559;BME280;59382;43.852;25.952;2022-11-20T09:13:45;100839.34;;;12.02;67.86
71559;BME280;59382;43.852;25.952;2022-11-20T09:16:10;100853.84;;;12.08;67.81
71559;BME280;59382;43.852;25.952;2022-11-20T09:18:37;100855.91;;;12.12;67.66
71559;BME280;59382;43.852;25.952;2022-11-20T09:21:09;100837.84;;;12.06;67.88
71559;BME280;59382;43.852;25.952;2022-11-20T09:23:36;100853.28;;;12.30;68.16
71559;BME280;59382;43.852;25.952;2022-11-20T09:26:07;100837.94;;;12.24;67.79
71559;BME280;59382;43.852;25.952;2022-11-20T09:28:33;100837.50;;;12.27;67.74
71559;BME280;59382;43.852;25.952;2022-11-20T09:30:59;100827.09;;;12.24;68.04
71559;BME280;59382;43.852;25.952;2022-11-20T09:33:25;100845.59;;;12.27;68.10
71559;BME280;59382;43.852;25.952;2022-11-20T09:35:51;100835.38;;;12.29;68.12
71559;BME280;59382;43.852;25.952;2022-11-20T09:38:17;100821.69;;;12.24;67.75
71559;BME280;59382;43.852;25.952;2022-11-20T09:46:44;100816.41;;;12.36;68.15
71559;BME280;59382;43.852;25.952;2022-11-20T09:52:02;100800.66;;;12.51;67.80
71559;BME280;59382;43.852;25.952;2022-11-20T09:54:39;100804.13;;;12.58;67.56
71559;BME280;59382;43.852;25.952;2022-11-20T09:57:12;100787.22;;;12.62;67.59
71559;BME280;59382;43.852;25.952;2022-11-20T09:59:46;100792.94;;;12.72;67.37
71559;BME280;59382;43.852;25.952;2022-11-20T10:04:55;100771.16;;;12.85;67.31
71559;BME280;59382;43.852;25.952;2022-11-20T10:07:28;100747.47;;;12.81;67.36
71559;BME280;59382;43.852;25.952;2022-11-20T10:09:56;100759.88;;;12.88;67.20
71559;BME280;59382;43.852;25.952;2022-11-20T10:18:23;100781.44;;;13.01;67.01
71559;BME280;59382;43.852;25.952;2022-11-20T10:23:42;100755.03;;;12.72;67.30
71559;BME280;59382;43.852;25.952;2022-11-20T10:26:26;100819.97;;;13.03;67.02
71559;BME280;59382;43.852;25.952;2022-11-20T10:29:17;100844.34;;;13.03;67.06
71559;BME280;59382;43.852;25.952;2022-11-20T10:31:46;100820.66;;;12.92;67.12
71559;BME280;59382;43.852;25.952;2022-11-20T10:36:54;100829.56;;;12.99;67.47
71559;BME280;59382;43.852;25.952;2022-11-20T10:39:22;100821.88;;;12.96;67.13
71559;BME280;59382;43.852;25.952;2022-11-20T10:41:52;100826.88;;;12.99;67.50
71559;BME280;59382;43.852;25.952;2022-11-20T10:44:21;100838.00;;;13.09;67.16
71559;BME280;59382;43.852;25.952;2022-11-20T10:47:14;100838.16;;;13.14;67.21
71559;BME280;59382;43.852;25.952;2022-11-20T10:49:41;100810.22;;;12.96;67.05
71559;BME280;59382;43.852;25.952;2022-11-20T10:58:07;100836.16;;;12.85;67.70
71559;BME280;59382;43.852;25.952;2022-11-20T11:00:35;100832.78;;;12.90;67.77
71559;BME280;59382;43.852;25.952;2022-11-20T11:03:01;100834.81;;;12.94;67.57
71559;BME280;59382;43.852;25.952;2022-11-20T11:05:43;100835.28;;;12.91;67.65
71559;BME280;59382;43.852;25.952;2022-11-20T11:08:14;100847.31;;;12.95;67.78
71559;BME280;59382;43.852;25.952;2022-11-20T11:10:54;100810.72;;;12.86;67.67
71559;BME280;59382;43.852;25.952;2022-11-20T11:13:24;100837.66;;;13.06;67.68
71559;BME280;59382;43.852;25.952;2022-11-20T11:15:50;100830.09;;;13.08;67.80
71559;BME280;59382;43.852;25.952;2022-11-20T11:18:26;100820.41;;;13.00;67.91
71559;BME280;59382;43.852;25.952;2022-11-20T11:20:53;100830.19;;;13.01;67.58
71559;BME280;59382;43.852;25.952;2022-11-20T11:23:41;100843.13;;;12.99;67.83
71559;BME280;59382;43.852;25.952;2022-11-20T11:26:19;100846.44;;;13.01;67.87
71559;BME280;59382;43.852;25.952;2022-11-20T11:29:03;100831.44;;;12.99;67.91
71559;BME280;59382;43.852;25.952;2022-11-20T11:31:34;100825.03;;;12.93;67.56
71559;BME280;59382;43.852;25.952;2022-11-20T11:34:16;100829.56;;;12.99;67.72
71559;BME280;59382;43.852;25.952;2022-11-20T11:36:51;100837.25;;;13.02;67.59
71559;BME280;59382;43.852;25.952;2022-11-20T11:39:20;100830.59;;;12.98;67.64
71559;BME280;59382;43.852;25.952;2022-11-20T11:41:46;100835.91;;;13.11;67.66
71559;BME280;59382;43.852;25.952;2022-11-20T11:44:19;100840.66;;;13.16;67.37
71559;BME280;59382;43.852;25.952;2022-11-20T11:47:05;100831.69;;;13.15;67.47
71559;BME280;59382;43.852;25.952;2022-11-20T11:49:33;100849.00;;;13.14;67.44
71559;BME280;59382;43.852;25.952;2022-11-20T11:52:13;100849.38;;;13.00;67.75
71559;BME280;59382;43.852;25.952;2022-11-20T11:54:50;100837.50;;;12.76;68.44
71559;BME280;59382;43.852;25.952;2022-11-20T12:00:15;100867.78;;;12.91;67.91
71559;BME280;59382;43.852;25.952;2022-11-20T12:05:40;100826.97;;;12.86;67.70
71559;BME280;59382;43.852;25.952;2022-11-20T12:11:15;100833.72;;;12.77;67.36
71559;BME280;59382;43.852;25.952;2022-11-20T12:13:47;100856.50;;;12.94;67.45
71559;BME280;59382;43.852;25.952;2022-11-20T12:16:14;100839.00;;;12.90;67.79
71559;BME280;59382;43.852;25.952;2022-11-20T12:18:43;100833.38;;;12.92;67.49
71559;BME280;59382;43.852;25.952;2022-11-20T12:24:06;100872.78;;;12.88;67.76
71559;BME280;59382;43.852;25.952;2022-11-20T12:30:04;100882.34;;;12.90;68.05
71559;BME280;59382;43.852;25.952;2022-11-20T12:33:12;100865.06;;;12.91;68.34
71559;BME280;59382;43.852;25.952;2022-11-20T12:38:54;100860.38;;;12.80;68.57
71559;BME280;59382;43.852;25.952;2022-11-20T12:44:33;100878.38;;;12.93;68.59
71559;BME280;59382;43.852;25.952;2022-11-20T13:01:58;100820.22;;;12.95;68.14
71559;BME280;59382;43.852;25.952;2022-11-20T13:07:11;100791.78;;;12.86;68.17
71559;BME280;59382;43.852;25.952;2022-11-20T13:09:42;100805.63;;;12.96;68.07
71559;BME280;59382;43.852;25.952;2022-11-20T13:17:35;100815.41;;;12.97;68.09
71559;BME280;59382;43.852;25.952;2022-11-20T13:20:02;100810.22;;;12.96;67.89
71559;BME280;59382;43.852;25.952;2022-11-20T13:22:41;100774.47;;;12.87;68.23
71559;BME280;59382;43.852;25.952;2022-11-20T13:25:24;100750.84;;;12.76;68.02
71559;BME280;59382;43.852;25.952;2022-11-20T13:27:50;100781.59;;;12.82;67.89
71559;BME280;59382;43.852;25.952;2022-11-20T13:30:19;100767.91;;;12.77;68.37
71559;BME280;59382;43.852;25.952;2022-11-20T13:35:29;100770.09;;;12.68;68.37
71559;BME280;59382;43.852;25.952;2022-11-20T13:41:00;100769.69;;;12.65;68.43
71559;BME280;59382;43.852;25.952;2022-11-20T13:43:47;100759.84;;;12.52;68.65
71559;BME280;59382;43.852;25.952;2022-11-20T13:46:14;100791.56;;;12.63;68.70
71559;BME280;59382;43.852;25.952;2022-11-20T13:48:45;100769.00;;;12.51;69.09
71559;BME280;59382;43.852;25.952;2022-11-20T14:02:10;100763.03;;;12.67;68.89
71559;BME280;59382;43.852;25.952;2022-11-20T14:04:43;100758.81;;;12.71;68.67
71559;BME280;59382;43.852;25.952;2022-11-20T14:07:13;100753.88;;;12.62;69.02
71559;BME280;59382;43.852;25.952;2022-11-20T14:09:49;100776.84;;;12.59;69.03
71559;BME280;59382;43.852;25.952;2022-11-20T14:12:18;100819.25;;;12.65;69.41
71559;BME280;59382;43.852;25.952;2022-11-20T14:14:50;100806.34;;;12.67;69.44
71559;BME280;59382;43.852;25.952;2022-11-20T14:19:55;100783.41;;;12.70;68.91
71559;BME280;59382;43.852;25.952;2022-11-20T14:22:32;100803.84;;;12.66;69.41